< < Back
Terminal Aerodrome Forecast


Current Version              Previous Versions:   1  2  3  4  5  6  7  8  9  

Terminal Aerodrome Forecast

711
FTUS42 KGSP 241740
TAFAVL
TAF
KAVL 241740Z 2418/2518 34013KT P6SM VCTS BKN060CB
     FM241900 34012KT P6SM BKN060
      TEMPO 2419/2423 VRB10G20KT 4SM TSRA OVC030CB
     FM242300 36010KT P6SM VCSH SCT060
     FM250200 36005KT P6SM SCT060
     FM251000 34004KT 2SM BR FEW200
     FM251200 34004KT P6SM FEW200=



Latest METAR

473
SAUS70 KWBC 250500 RRJ
MTRAVL
METAR KAVL 250454Z AUTO 01004KT 10SM CLR 22/18 A3014 RMK AO2 SLP176
T02220183 403170200


USA.gov is the U.S. government's official web portal to all federal, state and local government web resources and services.